DAL1231 KLGA-KDTW
Flight info
| Callsign | DAL1231 |
|---|---|
| Flight time | N/A |
| Altitude | 36000 |
| Route | GAYEL J95 CFB TRAAD JACCI FERRL2 |
| Aircraft | B738/M-SDE2E3FGHIRWXY/LB1 |
Departure
| Time | 2026-05-06 17:56 |
|---|---|
| Airport | LaGuardia Airport (KLGA) |
Arrival
| Time | N/A |
|---|---|
| Airport | Detroit Metropolitan Wayne County Airport (KDTW) |
| Time | Latitude | Longitude | Altitude | Speed | Heading |
|---|---|---|---|---|---|
| 2026-05-06 17:26 | 40.77119 | -73.86224 | 10 ft | 0 kts | 312° |
| 2026-05-06 17:39 | 40.77119 | -73.86223 | 10 ft | 0 kts | 312° |
| 2026-05-06 17:40 | 40.77115 | -73.86217 | 10 ft | 2 kts | 312° |
| 2026-05-06 17:41 | 40.77105 | -73.86202 | 10 ft | 2 kts | 315° |
| 2026-05-06 17:41 | 40.77092 | -73.86192 | 10 ft | 2 kts | 340° |
| 2026-05-06 17:41 | 40.77078 | -73.86187 | 10 ft | 2 kts | 0° |
| 2026-05-06 17:41 | 40.77063 | -73.86190 | 10 ft | 2 kts | 20° |
| 2026-05-06 17:42 | 40.77055 | -73.86195 | 10 ft | 1 kts | 31° |
| 2026-05-06 17:42 | 40.77050 | -73.86198 | 10 ft | 0 kts | 32° |
| 2026-05-06 17:44 | 40.77054 | -73.86195 | 10 ft | 2 kts | 32° |
| 2026-05-06 17:44 | 40.77099 | -73.86159 | 10 ft | 10 kts | 33° |
| 2026-05-06 17:45 | 40.77150 | -73.86105 | 10 ft | 8 kts | 24° |
| 2026-05-06 17:45 | 40.77196 | -73.86109 | 9 ft | 5 kts | 324° |
| 2026-05-06 17:45 | 40.77221 | -73.86144 | 10 ft | 4 kts | 308° |
| 2026-05-06 17:45 | 40.77238 | -73.86173 | 10 ft | 3 kts | 308° |
| 2026-05-06 17:46 | 40.77255 | -73.86202 | 10 ft | 4 kts | 303° |
| 2026-05-06 17:46 | 40.77288 | -73.86271 | 10 ft | 3 kts | 302° |
| 2026-05-06 17:46 | 40.77301 | -73.86299 | 9 ft | 3 kts | 302° |
| 2026-05-06 17:46 | 40.77315 | -73.86327 | 10 ft | 3 kts | 302° |
| 2026-05-06 17:47 | 40.77330 | -73.86361 | 9 ft | 6 kts | 301° |
| 2026-05-06 17:47 | 40.77372 | -73.86450 | 10 ft | 15 kts | 301° |
| 2026-05-06 17:47 | 40.77426 | -73.86567 | 10 ft | 14 kts | 302° |
| 2026-05-06 17:47 | 40.77476 | -73.86670 | 10 ft | 12 kts | 302° |
| 2026-05-06 17:48 | 40.77517 | -73.86756 | 11 ft | 9 kts | 301° |
| 2026-05-06 17:48 | 40.77551 | -73.86819 | 12 ft | 7 kts | 310° |
| 2026-05-06 17:48 | 40.77579 | -73.86865 | 12 ft | 6 kts | 304° |
| 2026-05-06 17:48 | 40.77615 | -73.86937 | 13 ft | 10 kts | 303° |
| 2026-05-06 17:49 | 40.77648 | -73.87006 | 13 ft | 6 kts | 302° |
| 2026-05-06 17:49 | 40.77670 | -73.87051 | 13 ft | 5 kts | 302° |
| 2026-05-06 17:49 | 40.77687 | -73.87087 | 13 ft | 4 kts | 302° |
| 2026-05-06 17:49 | 40.77702 | -73.87118 | 13 ft | 3 kts | 302° |
| 2026-05-06 17:50 | 40.77725 | -73.87167 | 13 ft | 11 kts | 301° |
| 2026-05-06 17:50 | 40.77766 | -73.87284 | 13 ft | 18 kts | 281° |
| 2026-05-06 17:50 | 40.77792 | -73.87391 | 13 ft | 15 kts | 317° |
| 2026-05-06 17:50 | 40.77839 | -73.87434 | 13 ft | 7 kts | 309° |
| 2026-05-06 17:51 | 40.77885 | -73.87537 | 13 ft | 15 kts | 301° |
| 2026-05-06 17:51 | 40.77942 | -73.87651 | 13 ft | 13 kts | 303° |
| 2026-05-06 17:51 | 40.77992 | -73.87753 | 13 ft | 12 kts | 303° |
| 2026-05-06 17:51 | 40.78049 | -73.87826 | 13 ft | 10 kts | 341° |
| 2026-05-06 17:52 | 40.78087 | -73.87840 | 12 ft | 1 kts | 347° |
| 2026-05-06 17:52 | 40.78088 | -73.87840 | 12 ft | 0 kts | 347° |
| 2026-05-06 17:52 | 40.78090 | -73.87841 | 12 ft | 1 kts | 347° |
| 2026-05-06 17:52 | 40.78099 | -73.87843 | 11 ft | 1 kts | 347° |
| 2026-05-06 17:53 | 40.78112 | -73.87847 | 11 ft | 0 kts | 347° |
| 2026-05-06 17:53 | 40.78126 | -73.87852 | 11 ft | 0 kts | 347° |
| 2026-05-06 17:54 | 40.78151 | -73.87859 | 10 ft | 11 kts | 348° |
| 2026-05-06 17:54 | 40.78191 | -73.87791 | 10 ft | 9 kts | 99° |
| 2026-05-06 17:54 | 40.78183 | -73.87760 | 10 ft | 0 kts | 120° |
| 2026-05-06 17:55 | 40.78156 | -73.87701 | 10 ft | 29 kts | 121° |
| 2026-05-06 17:55 | 40.77906 | -73.87193 | 12 ft | 101 kts | 122° |
| 2026-05-06 17:55 | 40.77425 | -73.86166 | 10 ft | 158 kts | 126° |
| 2026-05-06 17:55 | 40.76801 | -73.84911 | 462 ft | 167 kts | 127° |
| 2026-05-06 17:56 | 40.75975 | -73.83917 | 934 ft | 166 kts | 164° |
| 2026-05-06 17:56 | 40.74823 | -73.83677 | 1377 ft | 174 kts | 176° |
| 2026-05-06 17:56 | 40.73582 | -73.83402 | 1848 ft | 186 kts | 172° |
| 2026-05-06 17:56 | 40.72270 | -73.83026 | 2336 ft | 201 kts | 179° |
| 2026-05-06 17:57 | 40.70916 | -73.83367 | 3003 ft | 207 kts | 214° |
| 2026-05-06 17:57 | 40.69963 | -73.84636 | 4185 ft | 196 kts | 230° |
| 2026-05-06 17:57 | 40.69136 | -73.86012 | 5116 ft | 196 kts | 228° |
| 2026-05-06 17:57 | 40.68267 | -73.87337 | 6011 ft | 198 kts | 230° |
| 2026-05-06 17:58 | 40.67644 | -73.88917 | 6901 ft | 205 kts | 253° |
| 2026-05-06 17:58 | 40.67730 | -73.90809 | 7797 ft | 220 kts | 277° |
| 2026-05-06 17:58 | 40.68412 | -73.92685 | 8662 ft | 232 kts | 289° |
| 2026-05-06 17:58 | 40.69229 | -73.94465 | 9465 ft | 235 kts | 289° |
| 2026-05-06 17:59 | 40.70065 | -73.96308 | 10339 ft | 234 kts | 289° |
| 2026-05-06 17:59 | 40.71066 | -73.98038 | 11094 ft | 249 kts | 307° |
| 2026-05-06 17:59 | 40.72456 | -73.99468 | 11765 ft | 260 kts | 315° |
| 2026-05-06 17:59 | 40.73971 | -74.00851 | 11954 ft | 267 kts | 316° |
| 2026-05-06 18:00 | 40.75493 | -74.02266 | 11968 ft | 266 kts | 315° |
| 2026-05-06 18:00 | 40.77015 | -74.03758 | 11991 ft | 285 kts | 314° |
| 2026-05-06 18:00 | 40.78629 | -74.05386 | 11978 ft | 294 kts | 314° |
| 2026-05-06 18:00 | 40.80264 | -74.07026 | 11962 ft | 291 kts | 315° |
| 2026-05-06 18:01 | 40.81871 | -74.08634 | 12072 ft | 299 kts | 314° |
| 2026-05-06 18:01 | 40.83517 | -74.10287 | 13103 ft | 292 kts | 316° |
| 2026-05-06 18:01 | 40.85106 | -74.11874 | 13978 ft | 290 kts | 315° |
| 2026-05-06 18:01 | 40.86711 | -74.13496 | 14649 ft | 296 kts | 316° |
| 2026-05-06 18:02 | 40.88391 | -74.15208 | 14928 ft | 305 kts | 315° |
| 2026-05-06 18:02 | 40.90065 | -74.16901 | 14969 ft | 306 kts | 315° |
| 2026-05-06 18:02 | 40.91817 | -74.18562 | 15615 ft | 314 kts | 321° |
| 2026-05-06 18:02 | 40.93875 | -74.19835 | 15915 ft | 342 kts | 335° |
| 2026-05-06 18:03 | 40.96225 | -74.20648 | 16282 ft | 361 kts | 339° |
| 2026-05-06 18:03 | 40.98763 | -74.21385 | 16623 ft | 377 kts | 340° |
| 2026-05-06 18:03 | 41.01368 | -74.22162 | 16962 ft | 387 kts | 340° |
| 2026-05-06 18:03 | 41.03998 | -74.22984 | 16969 ft | 388 kts | 339° |
| 2026-05-06 18:04 | 41.06585 | -74.23827 | 16968 ft | 383 kts | 339° |
| 2026-05-06 18:04 | 41.09159 | -74.24693 | 16972 ft | 378 kts | 338° |
| 2026-05-06 18:04 | 41.11737 | -74.25583 | 16982 ft | 380 kts | 338° |
| 2026-05-06 18:04 | 41.14276 | -74.26471 | 16967 ft | 382 kts | 337° |
| 2026-05-06 18:05 | 41.16880 | -74.27387 | 17075 ft | 392 kts | 338° |
| 2026-05-06 18:05 | 41.19476 | -74.28297 | 17940 ft | 389 kts | 337° |
| 2026-05-06 18:05 | 41.22139 | -74.29227 | 18651 ft | 392 kts | 338° |
| 2026-05-06 18:05 | 41.24777 | -74.30149 | 19309 ft | 395 kts | 337° |
| 2026-05-06 18:06 | 41.27423 | -74.31073 | 19865 ft | 401 kts | 337° |
| 2026-05-06 18:06 | 41.30132 | -74.32023 | 20530 ft | 403 kts | 337° |
| 2026-05-06 18:06 | 41.32864 | -74.32986 | 21085 ft | 407 kts | 336° |
| 2026-05-06 18:06 | 41.35526 | -74.34111 | 21642 ft | 406 kts | 331° |
| 2026-05-06 18:07 | 41.38086 | -74.35722 | 22182 ft | 399 kts | 321° |
| 2026-05-06 18:07 | 41.40280 | -74.37830 | 22866 ft | 389 kts | 311° |
| 2026-05-06 18:07 | 41.42192 | -74.40381 | 23456 ft | 383 kts | 303° |
| 2026-05-06 18:07 | 41.43820 | -74.43127 | 24107 ft | 378 kts | 298° |
| 2026-05-06 18:08 | 41.45266 | -74.46043 | 24609 ft | 379 kts | 295° |
| 2026-05-06 18:08 | 41.46614 | -74.49079 | 24805 ft | 384 kts | 294° |
| 2026-05-06 18:08 | 41.47923 | -74.52172 | 24804 ft | 383 kts | 293° |
| 2026-05-06 18:08 | 41.49233 | -74.55283 | 24804 ft | 379 kts | 293° |
| 2026-05-06 18:09 | 41.50521 | -74.58324 | 24961 ft | 385 kts | 293° |
| 2026-05-06 18:09 | 41.51834 | -74.61403 | 25729 ft | 381 kts | 293° |
| 2026-05-06 18:09 | 41.53129 | -74.64421 | 26569 ft | 374 kts | 293° |
| 2026-05-06 18:09 | 41.54410 | -74.67411 | 27471 ft | 365 kts | 292° |